createdAt,value
2022-08-02T00:01:01.576Z,100723.94
2022-08-02T00:03:05.813Z,100722.06
2022-08-02T00:05:09.620Z,100721.09
2022-08-02T00:07:12.714Z,100713.63
2022-08-02T00:09:16.186Z,100705.47
2022-08-02T00:11:19.065Z,100708.25
2022-08-02T00:13:21.964Z,100707.47
2022-08-02T00:15:25.038Z,100707.59
2022-08-02T00:17:28.155Z,100703.22
2022-08-02T00:19:32.400Z,100708.44
2022-08-02T00:21:35.402Z,100699.63
2022-08-02T00:24:27.764Z,100705.94
2022-08-02T00:26:01.174Z,100704.38
2022-08-02T00:28:03.991Z,100696.63
2022-08-02T00:30:08.105Z,100695.84
2022-08-02T00:32:11.282Z,100696.50
2022-08-02T00:34:28.935Z,100693.19
2022-08-02T00:36:35.374Z,100702.97
2022-08-02T00:38:38.114Z,100703.44
2022-08-02T00:40:41.151Z,100700.66
2022-08-02T00:42:45.454Z,100708.63
2022-08-02T00:44:48.294Z,100711.28
2022-08-02T00:46:51.148Z,100712.78
2022-08-02T00:48:56.057Z,100721.78
2022-08-02T00:50:58.948Z,100719.25
2022-08-02T00:53:03.469Z,100719.97
2022-08-02T00:55:07.165Z,100719.13
2022-08-02T00:57:10.160Z,100728.00
2022-08-02T00:59:13.128Z,100729.47
2022-08-02T01:01:18.834Z,100730.81
2022-08-02T01:03:21.689Z,100735.69
2022-08-02T01:05:24.637Z,100732.13
2022-08-02T01:07:27.935Z,100733.25
2022-08-02T01:09:32.148Z,100740.31
2022-08-02T01:11:36.489Z,100743.75
2022-08-02T01:13:39.472Z,100736.06
2022-08-02T01:15:49.305Z,100742.22
2022-08-02T01:18:02.149Z,100741.28
2022-08-02T01:20:14.139Z,100744.31
2022-08-02T01:23:00.547Z,100749.59
2022-08-02T01:25:29.202Z,100746.13
2022-08-02T01:27:44.297Z,100749.59
2022-08-02T01:29:54.618Z,100743.63
2022-08-02T01:32:04.380Z,100740.97
2022-08-02T01:34:15.686Z,100741.03
2022-08-02T01:36:20.237Z,100741.50
2022-08-02T01:38:28.016Z,100746.69
2022-08-02T01:40:36.082Z,100745.16
2022-08-02T01:42:41.996Z,100746.25
2022-08-02T01:44:46.827Z,100737.38
2022-08-02T01:46:53.118Z,100733.75
2022-08-02T01:48:59.003Z,100738.19
2022-08-02T01:51:04.962Z,100740.28
2022-08-02T01:53:10.290Z,100739.41
2022-08-02T01:55:18.478Z,100743.06
2022-08-02T01:57:24.103Z,100736.81
2022-08-02T01:59:28.360Z,100734.97
2022-08-02T02:01:33.566Z,100735.88
2022-08-02T02:03:41.661Z,100731.50
2022-08-02T02:05:47.879Z,100726.50
2022-08-02T02:07:54.631Z,100739.75
2022-08-02T02:09:59.571Z,100737.09
2022-08-02T02:12:04.103Z,100740.69
2022-08-02T02:14:18.582Z,100735.28
2022-08-02T02:16:23.682Z,100735.41
2022-08-02T02:18:29.035Z,100741.59
2022-08-02T02:20:33.750Z,100744.25
2022-08-02T02:22:36.723Z,100737.03
2022-08-02T02:24:39.988Z,100744.34
2022-08-02T02:26:49.299Z,100733.84
2022-08-02T02:28:57.147Z,100728.59
2022-08-02T02:31:04.417Z,100728.66
2022-08-02T02:33:09.473Z,100728.59
2022-08-02T02:35:14.832Z,100727.00
2022-08-02T02:37:22.648Z,100720.72
2022-08-02T02:39:28.636Z,100737.69
2022-08-02T02:41:31.662Z,100738.59
2022-08-02T02:43:36.287Z,100737.00
2022-08-02T02:45:40.820Z,100740.66
2022-08-02T02:47:44.067Z,100738.16
2022-08-02T02:49:48.589Z,100746.97
2022-08-02T02:51:52.438Z,100746.91
2022-08-02T02:54:30.633Z,100751.41
2022-08-02T02:56:21.939Z,100746.25
2022-08-02T02:58:28.992Z,100748.00
2022-08-02T03:00:49.805Z,100745.34
2022-08-02T03:02:52.926Z,100742.72
2022-08-02T03:05:01.499Z,100748.66
2022-08-02T03:07:04.883Z,100744.31
2022-08-02T03:09:11.586Z,100748.00
2022-08-02T03:11:14.954Z,100747.91
2022-08-02T03:13:19.571Z,100750.28
2022-08-02T03:15:23.036Z,100750.91
2022-08-02T03:17:25.944Z,100749.50
2022-08-02T03:19:33.248Z,100752.03
2022-08-02T03:21:36.307Z,100752.41
2022-08-02T03:23:39.852Z,100760.44
2022-08-02T03:25:44.076Z,100762.34
2022-08-02T03:27:47.270Z,100764.34
2022-08-02T03:29:50.082Z,100760.94
2022-08-02T03:31:53.681Z,100762.78
2022-08-02T03:33:57.634Z,100763.59
2022-08-02T03:36:06.542Z,100765.47
2022-08-02T03:38:10.392Z,100761.88
2022-08-02T03:40:14.600Z,100769.91
2022-08-02T03:42:19.869Z,100759.47
2022-08-02T03:44:24.567Z,100763.78
2022-08-02T03:46:27.733Z,100754.16
2022-08-02T03:48:34.812Z,100761.06
2022-08-02T03:50:39.093Z,100759.66
2022-08-02T03:52:43.453Z,100759.81
2022-08-02T03:54:46.517Z,100760.84
2022-08-02T03:56:49.348Z,100764.25
2022-08-02T03:59:06.664Z,100760.16
2022-08-02T04:01:09.646Z,100762.25
2022-08-02T04:03:12.722Z,100761.22
2022-08-02T04:05:22.640Z,100758.59
2022-08-02T04:08:33.893Z,100763.88
2022-08-02T04:09:48.274Z,100761.31
2022-08-02T04:11:50.142Z,100755.19
2022-08-02T04:13:56.476Z,100755.94
2022-08-02T04:16:10.751Z,100762.84
2022-08-02T04:18:14.454Z,100760.44
2022-08-02T04:20:20.923Z,100763.06
2022-08-02T04:22:26.958Z,100758.66
2022-08-02T04:24:35.622Z,100761.44
2022-08-02T04:26:39.461Z,100768.59
2022-08-02T04:28:45.472Z,100765.69
2022-08-02T04:30:51.945Z,100767.69
2022-08-02T04:32:55.762Z,100769.34
2022-08-02T04:35:18.644Z,100767.69
2022-08-02T04:37:22.408Z,100776.44
2022-08-02T04:39:25.311Z,100776.41
2022-08-02T04:41:44.175Z,100767.59
2022-08-02T04:43:47.349Z,100781.03
2022-08-02T04:45:54.382Z,100778.13
2022-08-02T04:48:05.631Z,100775.75
2022-08-02T04:50:10.072Z,100781.94
2022-08-02T04:52:13.256Z,100774.69
2022-08-02T04:54:16.365Z,100782.44
2022-08-02T04:56:19.195Z,100777.16
2022-08-02T04:58:40.099Z,100779.81
2022-08-02T05:00:43.960Z,100776.34
2022-08-02T05:02:48.596Z,100784.00
2022-08-02T05:04:51.834Z,100782.19
2022-08-02T05:06:54.697Z,100784.09
2022-08-02T05:08:57.751Z,100789.03
2022-08-02T05:11:00.601Z,100784.41
2022-08-02T05:13:06.059Z,100781.84
2022-08-02T05:15:12.829Z,100785.44
2022-08-02T05:17:16.020Z,100786.66
2022-08-02T05:19:20.234Z,100787.59
2022-08-02T05:21:23.078Z,100787.59
2022-08-02T05:23:26.022Z,100785.84
2022-08-02T05:25:29.124Z,100793.91
2022-08-02T05:27:33.063Z,100796.25
2022-08-02T05:29:35.883Z,100797.88
2022-08-02T05:31:38.750Z,100798.94
2022-08-02T05:33:41.988Z,100792.75
2022-08-02T05:35:46.626Z,100793.50
2022-08-02T05:37:52.513Z,100793.69
2022-08-02T05:39:56.429Z,100791.03
2022-08-02T05:41:59.362Z,100788.56
2022-08-02T05:44:02.235Z,100795.19
2022-08-02T05:46:05.357Z,100787.34
2022-08-02T05:48:08.666Z,100783.03
2022-08-02T05:50:11.579Z,100786.28
2022-08-02T05:52:18.526Z,100787.16
2022-08-02T05:54:27.420Z,100794.38
2022-08-02T05:56:35.769Z,100790.69
2022-08-02T05:58:57.363Z,100804.09
2022-08-02T06:01:03.911Z,100797.59
2022-08-02T06:03:20.251Z,100796.34
2022-08-02T06:05:23.680Z,100806.19
2022-08-02T06:07:28.035Z,100805.09
2022-08-02T06:09:31.459Z,100810.50
2022-08-02T06:11:38.172Z,100807.56
2022-08-02T06:13:42.290Z,100807.56
2022-08-02T06:15:53.308Z,100803.25
2022-08-02T06:17:58.226Z,100810.63
2022-08-02T06:20:01.496Z,100820.28
2022-08-02T06:22:32.651Z,100817.19
2022-08-02T06:24:40.227Z,100808.03
2022-08-02T06:26:44.891Z,100802.38
2022-08-02T06:28:50.127Z,100805.69
2022-08-02T06:30:52.966Z,100804.91
2022-08-02T06:32:56.197Z,100811.81
2022-08-02T06:34:59.034Z,100808.03
2022-08-02T06:37:10.217Z,100809.69
2022-08-02T06:39:28.014Z,100807.44
2022-08-02T06:41:38.015Z,100814.06
2022-08-02T06:43:47.955Z,100824.78
2022-08-02T06:45:50.918Z,100824.34
2022-08-02T06:47:54.966Z,100822.69
2022-08-02T06:49:58.509Z,100821.78
2022-08-02T06:52:01.638Z,100826.00
2022-08-02T06:54:04.648Z,100820.00
2022-08-02T06:56:07.499Z,100823.34
2022-08-02T06:58:13.722Z,100827.50
2022-08-02T07:00:16.872Z,100829.47
2022-08-02T07:02:20.801Z,100824.09
2022-08-02T07:04:23.669Z,100822.41
2022-08-02T07:06:26.562Z,100821.94
2022-08-02T07:08:32.278Z,100825.38
2022-08-02T07:10:35.163Z,100830.41
2022-08-02T07:12:38.130Z,100835.28
2022-08-02T07:14:42.302Z,100824.38
2022-08-02T07:16:45.151Z,100827.38
2022-08-02T07:18:48.034Z,100822.88
2022-08-02T07:20:51.010Z,100820.50
2022-08-02T07:22:53.884Z,100820.91
2022-08-02T07:24:58.008Z,100819.91
2022-08-02T07:27:11.301Z,100823.78
2022-08-02T07:29:15.101Z,100818.53
2022-08-02T07:31:19.314Z,100817.44
2022-08-02T07:33:38.931Z,100812.31
2022-08-02T07:35:42.838Z,100811.72
2022-08-02T07:37:55.173Z,100808.06
2022-08-02T07:40:01.175Z,100813.47
2022-08-02T07:42:08.708Z,100815.69
2022-08-02T07:44:11.821Z,100814.66
2022-08-02T07:46:14.690Z,100808.97
2022-08-02T07:48:20.722Z,100810.66
2022-08-02T07:50:24.277Z,100813.31
2022-08-02T07:52:27.254Z,100810.03
2022-08-02T07:54:30.111Z,100813.81
2022-08-02T07:56:32.952Z,100807.75
2022-08-02T07:58:35.873Z,100810.25
2022-08-02T08:00:39.251Z,100808.66
2022-08-02T08:02:42.186Z,100804.69
2022-08-02T08:04:46.484Z,100801.03
2022-08-02T08:06:52.038Z,100807.03
2022-08-02T08:08:55.471Z,100811.66
2022-08-02T08:10:58.610Z,100807.53
2022-08-02T08:13:01.501Z,100801.84
2022-08-02T08:15:05.410Z,100800.03
2022-08-02T08:17:08.582Z,100797.22
2022-08-02T08:19:11.501Z,100805.41
2022-08-02T08:21:15.718Z,100801.75
2022-08-02T08:23:18.565Z,100800.53
2022-08-02T08:25:21.673Z,100795.00
2022-08-02T08:27:25.765Z,100797.97
2022-08-02T08:29:28.780Z,100801.97
2022-08-02T08:31:31.632Z,100794.09
2022-08-02T08:33:34.719Z,100791.78
2022-08-02T08:35:37.594Z,100792.78
2022-08-02T08:37:41.865Z,100793.72
2022-08-02T08:39:57.910Z,100788.16
2022-08-02T08:42:02.187Z,100798.25
2022-08-02T08:44:05.534Z,100794.53
2022-08-02T08:46:11.259Z,100789.63
2022-08-02T08:48:21.805Z,100792.63
2022-08-02T08:50:37.335Z,100790.72
2022-08-02T08:52:47.910Z,100786.78
2022-08-02T08:54:52.249Z,100791.22
2022-08-02T08:56:55.752Z,100790.13
2022-08-02T08:58:58.895Z,100800.50
2022-08-02T09:01:01.863Z,100796.34
2022-08-02T09:03:05.904Z,100791.59
2022-08-02T09:05:12.018Z,100797.81
2022-08-02T09:07:15.381Z,100800.25
2022-08-02T09:09:20.275Z,100801.69
2022-08-02T09:11:25.840Z,100798.44
2022-08-02T09:13:31.338Z,100800.81
2022-08-02T09:15:55.066Z,100802.41
2022-08-02T09:17:57.847Z,100797.22
2022-08-02T09:20:10.505Z,100786.88
2022-08-02T09:22:14.677Z,100783.28
2022-08-02T09:24:21.451Z,100788.00
2022-08-02T09:26:25.010Z,100789.88
2022-08-02T09:28:29.198Z,100781.81
2022-08-02T09:30:32.028Z,100783.47
2022-08-02T09:32:46.098Z,100782.69
2022-08-02T09:34:51.331Z,100778.94
2022-08-02T09:36:54.842Z,100787.66
2022-08-02T09:39:01.376Z,100788.53
2022-08-02T09:41:06.701Z,100785.53
2022-08-02T09:43:10.441Z,100779.56
2022-08-02T09:45:13.316Z,100779.09
2022-08-02T09:47:17.577Z,100786.19
2022-08-02T09:49:20.498Z,100781.81
2022-08-02T09:51:25.611Z,100779.75
2022-08-02T09:53:28.473Z,100782.84
2022-08-02T09:55:31.635Z,100781.34
2022-08-02T09:57:38.347Z,100773.63
2022-08-02T09:59:53.772Z,100770.47
2022-08-02T10:02:02.007Z,100771.69
2022-08-02T10:04:12.449Z,100769.19
2022-08-02T10:06:18.659Z,100765.94
2022-08-02T10:08:21.678Z,100765.09
2022-08-02T10:10:24.916Z,100767.06
2022-08-02T10:12:28.206Z,100762.56
2022-08-02T10:14:34.573Z,100761.13
2022-08-02T10:16:39.840Z,100759.59
2022-08-02T10:18:43.012Z,100756.47
2022-08-02T10:20:46.278Z,100754.06
2022-08-02T10:22:49.610Z,100755.94
2022-08-02T10:24:53.574Z,100752.34
2022-08-02T10:26:59.090Z,100750.53
2022-08-02T10:29:02.488Z,100753.41
2022-08-02T10:31:08.582Z,100744.09
2022-08-02T10:33:12.803Z,100739.50
2022-08-02T10:35:19.022Z,100737.91
2022-08-02T10:37:32.277Z,100735.34
2022-08-02T10:40:00.499Z,100726.47
2022-08-02T10:42:03.437Z,100732.84
2022-08-02T10:44:06.309Z,100728.63
2022-08-02T10:46:36.189Z,100722.78
2022-08-02T10:49:23.946Z,100714.06
2022-08-02T10:52:14.712Z,100719.13
2022-08-02T10:54:20.695Z,100720.09
2022-08-02T10:56:48.444Z,100719.28
2022-08-02T10:59:25.192Z,100710.63
2022-08-02T11:01:39.605Z,100710.88
2022-08-02T11:03:46.045Z,100703.81
2022-08-02T11:06:02.225Z,100710.69
2022-08-02T11:08:20.005Z,100708.78
2022-08-02T11:10:32.753Z,100705.47
2022-08-02T11:13:00.118Z,100709.00
2022-08-02T11:15:07.798Z,100705.84
2022-08-02T11:17:13.300Z,100697.06
2022-08-02T11:19:16.159Z,100702.13
2022-08-02T11:21:23.868Z,100702.84
2022-08-02T11:23:45.029Z,100702.66
2022-08-02T11:26:10.848Z,100694.28
2022-08-02T11:28:14.405Z,100688.09
2022-08-02T11:30:17.990Z,100685.41
2022-08-02T11:32:30.539Z,100696.38
2022-08-02T11:34:37.501Z,100691.88
2022-08-02T11:36:48.758Z,100693.53
2022-08-02T11:38:51.622Z,100689.72
2022-08-02T11:40:57.451Z,100688.88
2022-08-02T11:43:00.556Z,100687.50
2022-08-02T11:45:07.381Z,100690.06
2022-08-02T11:47:10.431Z,100687.94
2022-08-02T11:49:18.872Z,100690.88
2022-08-02T11:51:21.790Z,100692.78
2022-08-02T11:53:24.662Z,100687.28
2022-08-02T11:55:29.317Z,100687.75
2022-08-02T11:58:03.034Z,100687.13
2022-08-02T11:59:56.568Z,100687.19
2022-08-02T12:02:00.872Z,100688.00
2022-08-02T12:04:04.579Z,100675.78
2022-08-02T12:06:16.192Z,100683.16
2022-08-02T12:08:22.437Z,100682.25
2022-08-02T12:10:28.447Z,100685.66
2022-08-02T12:12:31.416Z,100684.75
2022-08-02T12:14:43.751Z,100680.34
2022-08-02T12:17:04.824Z,100677.94
2022-08-02T12:19:29.021Z,100685.00
2022-08-02T12:21:32.039Z,100676.91
2022-08-02T12:23:59.749Z,100679.56
2022-08-02T12:26:04.840Z,100681.09
2022-08-02T12:28:17.382Z,100681.97
2022-08-02T12:30:27.619Z,100676.47
2022-08-02T12:32:31.380Z,100669.88
2022-08-02T12:34:36.530Z,100669.47
2022-08-02T12:36:39.864Z,100669.59
2022-08-02T12:38:51.499Z,100668.91
2022-08-02T12:40:54.413Z,100668.16
2022-08-02T12:42:58.919Z,100672.03
2022-08-02T12:45:01.881Z,100670.91
2022-08-02T12:47:07.498Z,100668.16
2022-08-02T12:49:19.046Z,100667.31
2022-08-02T12:51:51.242Z,100665.94
2022-08-02T12:54:00.077Z,100664.59
2022-08-02T12:56:04.015Z,100655.63
2022-08-02T12:58:07.333Z,100662.84
2022-08-02T13:00:11.682Z,100656.09
2022-08-02T13:02:16.788Z,100657.16
2022-08-02T13:04:20.195Z,100649.78
2022-08-02T13:06:42.995Z,100648.63
2022-08-02T13:08:47.568Z,100650.16
2022-08-02T13:10:50.542Z,100650.84
2022-08-02T13:12:53.966Z,100647.78
2022-08-02T13:14:57.087Z,100641.63
2022-08-02T13:17:00.067Z,100638.19
2022-08-02T13:19:02.900Z,100640.16
2022-08-02T13:21:06.782Z,100637.56
2022-08-02T13:23:21.348Z,100638.66
2022-08-02T13:25:25.136Z,100632.91
2022-08-02T13:27:28.598Z,100634.78
2022-08-02T13:29:31.592Z,100623.53
2022-08-02T13:31:37.293Z,100630.56
2022-08-02T13:33:40.138Z,100627.19
2022-08-02T13:35:43.566Z,100620.75
2022-08-02T13:37:47.714Z,100618.88
2022-08-02T13:40:18.787Z,100613.97
2022-08-02T13:42:17.147Z,100610.22
2022-08-02T13:44:20.177Z,100615.69
2022-08-02T13:46:28.643Z,100611.16
2022-08-02T13:48:32.449Z,100610.06
2022-08-02T13:50:35.453Z,100605.41
2022-08-02T13:52:38.292Z,100603.50
2022-08-02T13:54:41.155Z,100598.88
2022-08-02T13:56:45.780Z,100603.94
2022-08-02T13:58:48.629Z,100597.28
2022-08-02T14:00:51.494Z,100596.00
2022-08-02T14:02:54.359Z,100593.41
2022-08-02T14:04:57.748Z,100603.63
2022-08-02T14:07:00.604Z,100597.91
2022-08-02T14:09:03.464Z,100594.38
2022-08-02T14:11:06.736Z,100591.03
2022-08-02T14:13:10.978Z,100588.44
2022-08-02T14:15:14.038Z,100588.00
2022-08-02T14:17:18.710Z,100581.31
2022-08-02T14:19:27.995Z,100575.97
2022-08-02T14:21:30.901Z,100571.75
2022-08-02T14:23:51.115Z,100577.69
2022-08-02T14:25:54.135Z,100574.16
2022-08-02T14:27:57.015Z,100569.06
2022-08-02T14:30:02.712Z,100571.06
2022-08-02T14:32:06.537Z,100575.41
2022-08-02T14:34:09.447Z,100570.13
2022-08-02T14:36:12.336Z,100567.22
2022-08-02T14:38:17.789Z,100556.69
2022-08-02T14:40:30.803Z,100560.78
2022-08-02T14:42:34.773Z,100554.91
2022-08-02T14:44:38.421Z,100558.94
2022-08-02T14:46:42.604Z,100554.69
2022-08-02T14:48:45.447Z,100553.63
2022-08-02T14:50:48.241Z,100548.19
2022-08-02T14:52:51.756Z,100547.44
2022-08-02T14:54:56.371Z,100550.13
2022-08-02T14:57:00.742Z,100545.56
2022-08-02T14:59:03.582Z,100544.72
2022-08-02T15:01:06.573Z,100541.22
2022-08-02T15:03:11.816Z,100546.91
2022-08-02T15:05:15.099Z,100539.25
2022-08-02T15:07:17.895Z,100543.47
2022-08-02T15:09:20.817Z,100548.25
2022-08-02T15:11:23.647Z,100536.81
2022-08-02T15:13:26.548Z,100534.50
2022-08-02T15:15:29.390Z,100535.59
2022-08-02T15:17:32.914Z,100539.34
2022-08-02T15:19:57.708Z,100540.44
2022-08-02T15:22:00.313Z,100527.72
2022-08-02T15:24:06.359Z,100540.53
2022-08-02T15:26:09.260Z,100534.19
2022-08-02T15:28:12.185Z,100528.97
2022-08-02T15:30:15.225Z,100533.69
2022-08-02T15:32:19.595Z,100531.09
2022-08-02T15:34:22.564Z,100531.47
2022-08-02T15:36:26.789Z,100528.88
2022-08-02T15:38:29.698Z,100528.41
2022-08-02T15:40:32.558Z,100525.34
2022-08-02T15:42:35.386Z,100524.41
2022-08-02T15:44:38.242Z,100521.91
2022-08-02T15:46:41.123Z,100520.19
2022-08-02T15:48:43.992Z,100524.00
2022-08-02T15:50:46.892Z,100512.97
2022-08-02T15:52:51.034Z,100520.31
2022-08-02T15:54:54.021Z,100521.38
2022-08-02T15:56:56.878Z,100520.91
2022-08-02T15:58:59.762Z,100518.00
2022-08-02T16:01:02.686Z,100517.50
2022-08-02T16:03:05.603Z,100515.03
2022-08-02T16:05:13.815Z,100516.97
2022-08-02T16:07:17.255Z,100508.91
2022-08-02T16:09:21.455Z,100512.13
2022-08-02T16:11:24.308Z,100513.19
2022-08-02T16:13:53.107Z,100511.59
2022-08-02T16:15:57.849Z,100508.41
2022-08-02T16:18:00.746Z,100510.53
2022-08-02T16:20:04.454Z,100513.34
2022-08-02T16:22:07.305Z,100511.72
2022-08-02T16:24:14.649Z,100510.44
2022-08-02T16:26:19.065Z,100502.09
2022-08-02T16:28:21.908Z,100505.31
2022-08-02T16:30:24.888Z,100514.59
2022-08-02T16:32:27.740Z,100508.75
2022-08-02T16:34:45.140Z,100507.34
2022-08-02T16:36:53.480Z,100508.84
2022-08-02T16:38:56.495Z,100507.13
2022-08-02T16:41:01.657Z,100504.78
2022-08-02T16:43:09.238Z,100496.94
2022-08-02T16:45:14.025Z,100499.97
2022-08-02T16:47:17.559Z,100495.66
2022-08-02T16:50:04.968Z,100500.41
2022-08-02T16:51:43.575Z,100505.97
2022-08-02T16:54:00.700Z,100494.16
2022-08-02T16:56:04.067Z,100492.00
2022-08-02T16:58:09.632Z,100494.59
2022-08-02T17:00:15.538Z,100491.38
2022-08-02T17:02:19.872Z,100490.72
2022-08-02T17:04:28.857Z,100486.41
2022-08-02T17:06:32.396Z,100491.94
2022-08-02T17:08:35.233Z,100494.53
2022-08-02T17:10:39.175Z,100486.56
2022-08-02T17:12:41.955Z,100485.09
2022-08-02T17:14:55.045Z,100483.34
2022-08-02T17:17:14.447Z,100490.09
2022-08-02T17:19:17.528Z,100496.63
2022-08-02T17:21:20.445Z,100484.59
2022-08-02T17:23:23.269Z,100492.31
2022-08-02T17:25:52.314Z,100500.63
2022-08-02T17:28:09.362Z,100487.75
2022-08-02T17:30:15.427Z,100487.84
2022-08-02T17:32:18.940Z,100500.59
2022-08-02T17:34:26.999Z,100502.38
2022-08-02T17:36:30.032Z,100503.09
2022-08-02T17:38:33.176Z,100497.38
2022-08-02T17:40:36.121Z,100499.19
2022-08-02T17:42:39.292Z,100495.38
2022-08-02T17:44:42.164Z,100501.78
2022-08-02T17:46:51.910Z,100504.56
2022-08-02T17:49:12.548Z,100501.09
2022-08-02T17:52:16.067Z,100503.34
2022-08-02T17:53:38.555Z,100500.28
2022-08-02T17:55:42.720Z,100494.38
2022-08-02T17:57:57.303Z,100500.88
2022-08-02T18:00:04.416Z,100502.88
2022-08-02T18:02:09.071Z,100500.97
2022-08-02T18:04:14.248Z,100499.16
2022-08-02T18:06:17.225Z,100494.19
2022-08-02T18:08:21.673Z,100499.66
2022-08-02T18:10:26.228Z,100501.56
2022-08-02T18:12:29.068Z,100503.75
2022-08-02T18:14:31.902Z,100510.44
2022-08-02T18:16:35.898Z,100510.63
2022-08-02T18:18:45.250Z,100513.78
2022-08-02T18:20:48.148Z,100506.91
2022-08-02T18:22:58.373Z,100501.66
2022-08-02T18:25:09.301Z,100499.31
2022-08-02T18:27:12.955Z,100498.00
2022-08-02T18:29:15.763Z,100501.84
2022-08-02T18:31:22.356Z,100502.19
2022-08-02T18:33:57.557Z,100496.25
2022-08-02T18:35:50.593Z,100497.56
2022-08-02T18:37:57.398Z,100501.19
2022-08-02T18:40:07.532Z,100508.44
2022-08-02T18:42:10.805Z,100503.47
2022-08-02T18:44:20.868Z,100494.66
2022-08-02T18:46:26.485Z,100493.81
2022-08-02T18:48:33.048Z,100504.59
2022-08-02T18:50:36.070Z,100498.31
2022-08-02T18:52:40.290Z,100508.41
2022-08-02T18:54:43.359Z,100501.72
2022-08-02T18:56:50.086Z,100499.50
2022-08-02T18:58:54.618Z,100500.63
2022-08-02T19:00:59.112Z,100505.47
2022-08-02T19:03:02.454Z,100497.22
2022-08-02T19:05:07.039Z,100501.00
2022-08-02T19:07:10.043Z,100499.44
2022-08-02T19:09:15.919Z,100499.44
2022-08-02T19:11:19.369Z,100495.69
2022-08-02T19:13:22.823Z,100493.75
2022-08-02T19:15:25.965Z,100500.75
2022-08-02T19:17:55.026Z,100502.66
2022-08-02T19:19:51.655Z,100497.63
2022-08-02T19:22:18.050Z,100492.31
2022-08-02T19:24:22.761Z,100493.63
2022-08-02T19:26:26.374Z,100501.78
2022-08-02T19:28:29.309Z,100491.28
2022-08-02T19:30:33.941Z,100491.63
2022-08-02T19:32:40.471Z,100497.16
2022-08-02T19:34:46.942Z,100500.00
2022-08-02T19:36:49.718Z,100500.19
2022-08-02T19:38:55.477Z,100498.63
2022-08-02T19:41:01.772Z,100506.72
2022-08-02T19:44:23.108Z,100504.31
2022-08-02T19:45:50.168Z,100502.75
2022-08-02T19:47:54.224Z,100499.34
2022-08-02T19:49:57.413Z,100499.59
2022-08-02T19:52:00.292Z,100502.53
2022-08-02T19:54:03.705Z,100508.88
2022-08-02T19:56:08.394Z,100508.03
2022-08-02T19:58:11.246Z,100501.84
2022-08-02T20:00:15.567Z,100506.13
2022-08-02T20:02:24.487Z,100509.91
2022-08-02T20:04:27.403Z,100502.88
2022-08-02T20:06:30.308Z,100510.06
2022-08-02T20:08:35.816Z,100512.16
2022-08-02T20:10:40.641Z,100516.84
2022-08-02T20:12:50.122Z,100511.84
2022-08-02T20:14:54.537Z,100515.53
2022-08-02T20:16:58.316Z,100509.44
2022-08-02T20:19:01.171Z,100512.34
2022-08-02T20:21:04.119Z,100505.28
2022-08-02T20:23:34.038Z,100512.44
2022-08-02T20:25:37.413Z,100505.53
2022-08-02T20:27:51.292Z,100507.41
2022-08-02T20:29:55.645Z,100506.81
2022-08-02T20:31:58.249Z,100506.72
2022-08-02T20:34:01.153Z,100504.91
2022-08-02T20:36:04.400Z,100495.19
2022-08-02T20:38:08.005Z,100493.53
2022-08-02T20:40:16.685Z,100509.47
2022-08-02T20:42:23.201Z,100505.22
2022-08-02T20:46:53.102Z,100505.06
2022-08-02T20:48:57.624Z,100510.88
2022-08-02T20:51:09.711Z,100505.03
2022-08-02T20:53:23.740Z,100504.41
2022-08-02T20:55:31.280Z,100512.63
2022-08-02T20:57:49.032Z,100514.63
2022-08-02T21:00:02.659Z,100509.47
2022-08-02T21:02:07.424Z,100507.72
2022-08-02T21:04:19.321Z,100504.44
2022-08-02T21:06:22.310Z,100515.44
2022-08-02T21:08:26.348Z,100513.69
2022-08-02T21:10:29.287Z,100508.19
2022-08-02T21:12:32.149Z,100509.94
2022-08-02T21:14:35.544Z,100508.97
2022-08-02T21:16:38.668Z,100518.00
2022-08-02T21:18:43.197Z,100504.72
2022-08-02T21:20:46.010Z,100511.09
2022-08-02T21:22:48.872Z,100510.94
2022-08-02T21:24:52.004Z,100505.56
2022-08-02T21:26:55.509Z,100505.78
2022-08-02T21:29:03.087Z,100504.06
2022-08-02T21:31:06.865Z,100504.22
2022-08-02T21:33:09.708Z,100505.38
2022-08-02T21:35:28.363Z,100505.66
2022-08-02T21:37:33.091Z,100506.56
2022-08-02T21:39:36.539Z,100509.53
2022-08-02T21:41:46.158Z,100506.88
2022-08-02T21:43:49.983Z,100501.63
2022-08-02T21:45:55.705Z,100505.34
2022-08-02T21:47:59.030Z,100513.31
2022-08-02T21:50:13.337Z,100506.19
2022-08-02T21:52:20.376Z,100511.66
2022-08-02T21:54:28.734Z,100510.00
2022-08-02T21:56:31.576Z,100513.59
2022-08-02T21:58:34.804Z,100510.88
2022-08-02T22:00:37.679Z,100513.69
2022-08-02T22:02:40.690Z,100517.13
2022-08-02T22:04:48.125Z,100517.97
2022-08-02T22:06:51.210Z,100526.84
2022-08-02T22:08:55.403Z,100523.22
2022-08-02T22:11:04.119Z,100522.50
2022-08-02T22:13:16.274Z,100530.69
2022-08-02T22:15:35.880Z,100530.91
2022-08-02T22:17:53.679Z,100529.25
2022-08-02T22:20:03.052Z,100529.53
2022-08-02T22:22:05.887Z,100531.44
2022-08-02T22:24:12.935Z,100531.50
2022-08-02T22:26:22.406Z,100533.63
2022-08-02T22:28:50.050Z,100530.28
2022-08-02T22:30:52.833Z,100542.81
2022-08-02T22:33:15.122Z,100534.91
2022-08-02T22:35:18.462Z,100535.88
2022-08-02T22:38:16.465Z,100539.44
2022-08-02T22:40:08.630Z,100543.91
2022-08-02T22:42:08.637Z,100551.19
2022-08-02T22:44:12.025Z,100548.41
2022-08-02T22:46:36.424Z,100548.28
2022-08-02T22:48:40.231Z,100549.31
2022-08-02T22:50:43.307Z,100542.31
2022-08-02T22:52:46.911Z,100541.63
2022-08-02T22:54:54.733Z,100547.00
2022-08-02T22:56:57.908Z,100538.19
2022-08-02T22:58:56.232Z,100501.88
2022-08-02T23:01:18.856Z,100548.44
2022-08-02T23:03:21.733Z,100553.94
2022-08-02T23:05:24.648Z,100551.63
2022-08-02T23:07:27.951Z,100547.09
2022-08-02T23:09:32.208Z,100552.41
2022-08-02T23:11:36.529Z,100546.53
2022-08-02T23:13:39.352Z,100544.97
2022-08-02T23:16:00.840Z,100546.66
2022-08-02T23:18:20.953Z,100551.50
2022-08-02T23:20:25.999Z,100554.44
2022-08-02T23:22:32.151Z,100560.69
2022-08-02T23:24:35.319Z,100557.25
2022-08-02T23:26:39.653Z,100559.19
2022-08-02T23:28:42.317Z,100557.34
2022-08-02T23:30:45.144Z,100546.72
2022-08-02T23:32:48.090Z,100551.78
2022-08-02T23:34:50.967Z,100542.72
2022-08-02T23:36:53.788Z,100551.50
2022-08-02T23:38:56.868Z,100553.41
2022-08-02T23:41:04.504Z,100548.34
2022-08-02T23:43:13.510Z,100545.25
2022-08-02T23:45:17.776Z,100553.31
2022-08-02T23:47:21.077Z,100558.63
2022-08-02T23:49:25.121Z,100555.91
2022-08-02T23:51:28.053Z,100552.38
2022-08-02T23:53:31.191Z,100553.38
2022-08-02T23:55:34.085Z,100555.09
2022-08-02T23:57:36.924Z,100552.44
2022-08-02T23:59:41.164Z,100548.88
